Accueil
METAR-TAF:

METAR-TAF

Aéroports :

Tchita, Russie

latitude: 52-05N, longitude: 113-29E, altitude: 685 m

Observation

Le bulletin a été fait il y a 30 minutes, à 21:00 UTC
Vent 2 kt de nord-ouest
Température 5°C
Humidité 87%
Pression 1007 hPa
Visibilité 10 km ou plus

METAR: UIAA 032100Z 31001MPS 9999 NSC 05/03 Q1007 R29/CLRD70 NOSIG RMK QFE697/0929

Heure: 06:30 (21:30 UTC)

Prévision

Le bulletin a été fait il y a 1 heure et 30 minutes, à 20:00 UTC
Prévision valable du 03 à 21 UTC au 04 à 21 UTC
Vent 6 kt de sud-ouest
Visibilité 10 km ou plus
Nuages épars à une hauteur de 4000 ft, Cumulonimbus.
Temporairement
du 04 à 06 UTC au 04 à 12 UTC
Vent 16 kt de direction variable
orage, pluie faible

TAF: UIAA 032000Z 0321/0421 22003MPS 9999 SCT040CB TEMPO 0406/0412 VRB08MPS -TSRA

Observations et prévisions météorologiques de plus de 4000 aéroports (messages METAR et TAF).

Les stations disponibles sont représentées par des disques jaunes et rouges sur la carte.

Passer la souris dessus pour voir le nom de la station.

Cliquer dessus pour voir les observations et prévisions météorologiques.

Pour changer de carte: cliquez sur les boutons verts avec une croix noire pour zoomer, sur le bouton vert avec un tiret pour effectuer un zoom arrière, ou sur les flèches vertes pour les cartes adjacentes.


METAR-TAF: